createdAt,value
2023-01-22T00:01:01.662Z,68.99
2023-01-22T00:03:28.723Z,68.88
2023-01-22T00:05:55.678Z,69.14
2023-01-22T00:08:22.694Z,69.00
2023-01-22T00:10:54.294Z,68.41
2023-01-22T00:13:22.643Z,69.91
2023-01-22T00:15:50.522Z,69.59
2023-01-22T00:18:18.036Z,70.13
2023-01-22T00:20:53.479Z,69.39
2023-01-22T00:23:21.089Z,68.43
2023-01-22T00:25:48.049Z,68.27
2023-01-22T00:28:15.664Z,66.72
2023-01-22T00:30:42.893Z,67.18
2023-01-22T00:33:09.802Z,67.07
2023-01-22T00:35:36.985Z,65.92
2023-01-22T00:38:04.012Z,65.89
2023-01-22T00:40:32.367Z,64.99
2023-01-22T00:42:59.252Z,64.81
2023-01-22T00:45:26.221Z,64.31
2023-01-22T00:47:53.319Z,64.15
2023-01-22T00:50:20.469Z,64.47
2023-01-22T00:52:47.527Z,64.94
2023-01-22T00:55:14.456Z,64.15
2023-01-22T00:57:41.350Z,64.21
2023-01-22T01:00:09.106Z,64.73
2023-01-22T01:02:58.706Z,65.10
2023-01-22T01:05:25.860Z,65.47
2023-01-22T01:07:52.956Z,65.10
2023-01-22T01:10:20.255Z,65.24
2023-01-22T01:12:47.363Z,65.51
2023-01-22T01:15:14.336Z,65.38
2023-01-22T01:17:41.506Z,65.52
2023-01-22T01:20:09.031Z,65.76
2023-01-22T01:22:35.958Z,66.25
2023-01-22T01:25:05.006Z,66.08
2023-01-22T01:27:32.701Z,66.26
2023-01-22T01:29:59.607Z,66.47
2023-01-22T01:32:26.558Z,65.85
2023-01-22T01:34:53.721Z,65.47
2023-01-22T01:37:20.682Z,66.05
2023-01-22T01:39:51.938Z,66.66
2023-01-22T01:42:30.347Z,67.29
2023-01-22T01:45:22.259Z,66.75
2023-01-22T01:47:54.104Z,66.21
2023-01-22T01:50:22.893Z,65.96
2023-01-22T01:52:49.873Z,65.90
2023-01-22T01:55:22.198Z,66.26
2023-01-22T01:57:49.163Z,65.79
2023-01-22T02:00:18.390Z,66.62
2023-01-22T02:02:45.681Z,66.26
2023-01-22T02:05:13.244Z,65.54
2023-01-22T02:07:41.622Z,66.18
2023-01-22T02:10:09.044Z,66.43
2023-01-22T02:12:36.674Z,65.66
2023-01-22T02:15:05.564Z,65.72
2023-01-22T02:17:32.425Z,65.70
2023-01-22T02:19:59.765Z,65.51
2023-01-22T02:22:32.479Z,64.99
2023-01-22T02:25:00.984Z,66.15
2023-01-22T02:27:28.044Z,65.39
2023-01-22T02:29:55.095Z,65.97
2023-01-22T02:32:22.419Z,65.70
2023-01-22T02:34:49.298Z,65.99
2023-01-22T02:37:16.552Z,65.01
2023-01-22T02:39:43.500Z,65.85
2023-01-22T02:42:10.713Z,65.78
2023-01-22T02:44:38.957Z,66.27
2023-01-22T02:47:06.320Z,66.35
2023-01-22T02:49:33.330Z,66.06
2023-01-22T02:52:01.499Z,65.79
2023-01-22T02:54:29.384Z,65.97
2023-01-22T02:56:56.876Z,66.30
2023-01-22T02:59:24.321Z,67.67
2023-01-22T03:01:51.918Z,68.83
2023-01-22T03:04:19.205Z,68.57
2023-01-22T03:06:47.378Z,68.93
2023-01-22T03:09:16.732Z,68.94
2023-01-22T03:11:45.475Z,68.67
2023-01-22T03:14:43.917Z,69.97
2023-01-22T03:17:29.473Z,70.03
2023-01-22T03:20:17.703Z,70.26
2023-01-22T03:22:44.741Z,69.96
2023-01-22T03:25:11.653Z,70.05
2023-01-22T03:27:58.845Z,69.68
2023-01-22T03:30:26.245Z,69.95
2023-01-22T03:32:53.146Z,70.90
2023-01-22T03:35:21.466Z,70.36
2023-01-22T03:38:03.162Z,70.57
2023-01-22T03:40:30.085Z,70.65
2023-01-22T03:42:57.211Z,70.43
2023-01-22T03:45:24.094Z,72.37
2023-01-22T03:47:54.337Z,71.03
2023-01-22T03:50:28.769Z,71.64
2023-01-22T03:52:57.831Z,71.52
2023-01-22T03:55:25.676Z,70.92
2023-01-22T03:57:54.074Z,70.34
2023-01-22T04:00:21.703Z,69.67
2023-01-22T04:02:51.091Z,70.21
2023-01-22T04:05:21.912Z,69.68
2023-01-22T04:07:50.607Z,69.99
2023-01-22T04:10:21.359Z,70.02
2023-01-22T04:12:48.943Z,70.12
2023-01-22T04:15:19.177Z,68.88
2023-01-22T04:17:47.448Z,69.67
2023-01-22T04:20:29.155Z,69.73
2023-01-22T04:23:09.500Z,69.50
2023-01-22T04:25:37.123Z,69.25
2023-01-22T04:28:04.408Z,68.86
2023-01-22T04:30:32.793Z,69.12
2023-01-22T04:33:12.435Z,68.07
2023-01-22T04:35:57.111Z,69.51
2023-01-22T04:38:25.647Z,69.17
2023-01-22T04:40:52.691Z,69.08
2023-01-22T04:43:19.702Z,69.07
2023-01-22T04:45:47.062Z,68.37
2023-01-22T04:48:14.179Z,67.98
2023-01-22T04:50:45.502Z,68.51
2023-01-22T04:53:12.898Z,67.74
2023-01-22T04:55:42.031Z,67.61
2023-01-22T04:58:10.675Z,66.91
2023-01-22T05:00:39.024Z,66.23
2023-01-22T05:03:06.293Z,65.98
2023-01-22T05:05:34.411Z,66.68
2023-01-22T05:08:02.328Z,67.22
2023-01-22T05:10:30.608Z,66.78
2023-01-22T05:12:58.126Z,66.06
2023-01-22T05:15:26.002Z,66.10
2023-01-22T05:17:57.009Z,65.50
2023-01-22T05:20:25.662Z,65.47
2023-01-22T05:22:53.272Z,66.01
2023-01-22T05:25:24.302Z,65.52
2023-01-22T05:27:51.308Z,65.88
2023-01-22T05:30:38.494Z,65.36
2023-01-22T05:33:32.128Z,64.16
2023-01-22T05:36:00.898Z,63.84
2023-01-22T05:38:30.080Z,64.00
2023-01-22T05:40:57.988Z,63.78
2023-01-22T05:43:24.887Z,63.69
2023-01-22T05:46:02.048Z,63.15
2023-01-22T05:48:51.890Z,62.44
2023-01-22T05:51:23.690Z,64.80
2023-01-22T05:53:51.220Z,64.16
2023-01-22T05:56:18.271Z,64.41
2023-01-22T05:58:45.455Z,64.60
2023-01-22T06:01:12.714Z,63.37
2023-01-22T06:03:45.189Z,65.34
2023-01-22T06:06:16.126Z,64.00
2023-01-22T06:08:43.861Z,64.36
2023-01-22T06:11:15.968Z,64.15
2023-01-22T06:13:46.345Z,65.34
2023-01-22T06:16:21.806Z,65.40
2023-01-22T06:19:21.137Z,64.37
2023-01-22T06:21:53.724Z,65.40
2023-01-22T06:24:27.502Z,68.83
2023-01-22T06:26:54.439Z,68.28
2023-01-22T06:29:27.015Z,67.61
2023-01-22T06:31:56.087Z,69.49
2023-01-22T06:34:23.547Z,68.54
2023-01-22T06:36:50.415Z,67.52
2023-01-22T06:39:18.249Z,69.75
2023-01-22T06:41:57.115Z,69.36
2023-01-22T06:44:24.083Z,69.93
2023-01-22T06:46:52.836Z,71.87
2023-01-22T06:49:24.035Z,72.39
2023-01-22T06:51:50.902Z,73.87
2023-01-22T06:54:18.669Z,76.04
2023-01-22T06:56:45.610Z,78.01
2023-01-22T06:59:14.032Z,79.12
2023-01-22T07:01:42.337Z,77.95
2023-01-22T07:04:09.653Z,79.08
2023-01-22T07:06:36.563Z,79.45
2023-01-22T07:09:03.570Z,79.94
2023-01-22T07:11:30.498Z,81.66
2023-01-22T07:13:57.401Z,80.75
2023-01-22T07:16:24.332Z,81.46
2023-01-22T07:18:51.323Z,80.59
2023-01-22T07:21:18.300Z,79.74
2023-01-22T07:23:45.228Z,78.92
2023-01-22T07:26:12.157Z,79.24
2023-01-22T07:28:39.273Z,80.44
2023-01-22T07:31:10.310Z,81.53
2023-01-22T07:33:37.408Z,82.26
2023-01-22T07:36:04.887Z,80.22
2023-01-22T07:38:31.828Z,79.17
2023-01-22T07:41:17.019Z,78.92
2023-01-22T07:43:53.229Z,75.77
2023-01-22T07:46:20.233Z,75.01
2023-01-22T07:48:47.178Z,74.82
2023-01-22T07:51:14.105Z,73.26
2023-01-22T07:53:42.000Z,73.71
2023-01-22T07:56:09.039Z,72.26
2023-01-22T07:58:36.000Z,72.26
2023-01-22T08:01:07.194Z,71.94
2023-01-22T08:03:34.311Z,74.94
2023-01-22T08:06:01.416Z,75.67
2023-01-22T08:08:28.363Z,76.40
2023-01-22T08:10:59.357Z,76.92
2023-01-22T08:13:26.458Z,74.33
2023-01-22T08:15:55.115Z,75.37
2023-01-22T08:18:23.103Z,77.98
2023-01-22T08:20:50.079Z,77.56
2023-01-22T08:23:17.268Z,76.23
2023-01-22T08:25:44.192Z,76.54
2023-01-22T08:28:11.176Z,75.08
2023-01-22T08:30:46.025Z,74.97
2023-01-22T08:33:15.757Z,73.91
2023-01-22T08:35:42.829Z,75.81
2023-01-22T08:38:09.736Z,74.30
2023-01-22T08:40:38.005Z,72.72
2023-01-22T08:43:05.214Z,72.53
2023-01-22T08:45:32.264Z,71.68
2023-01-22T08:48:00.454Z,71.30
2023-01-22T08:50:28.929Z,70.93
2023-01-22T08:52:58.639Z,71.28
2023-01-22T08:55:27.927Z,70.82
2023-01-22T08:57:56.615Z,70.78
2023-01-22T09:00:24.883Z,70.31
2023-01-22T09:02:51.933Z,71.67
2023-01-22T09:05:18.838Z,70.58
2023-01-22T09:07:45.701Z,73.31
2023-01-22T09:10:13.030Z,73.07
2023-01-22T09:12:40.882Z,73.01
2023-01-22T09:15:08.505Z,72.56
2023-01-22T09:17:35.369Z,72.24
2023-01-22T09:20:02.374Z,69.46
2023-01-22T09:22:29.347Z,69.80
2023-01-22T09:24:56.369Z,68.99
2023-01-22T09:27:23.409Z,67.64
2023-01-22T09:29:50.322Z,67.62
2023-01-22T09:32:17.416Z,69.97
2023-01-22T09:34:44.494Z,69.70
2023-01-22T09:37:11.990Z,67.82
2023-01-22T09:39:38.935Z,68.68
2023-01-22T09:42:11.059Z,69.45
2023-01-22T09:44:43.577Z,69.12
2023-01-22T10:17:34.595Z,75.13
2023-01-22T10:20:05.572Z,71.33
2023-01-22T10:22:32.560Z,69.54
2023-01-22T10:24:59.561Z,69.41
2023-01-22T10:27:37.085Z,66.81
2023-01-22T10:30:22.093Z,69.37
2023-01-22T10:33:04.217Z,67.60
2023-01-22T10:35:32.267Z,68.89
2023-01-22T10:38:00.488Z,67.32
2023-01-22T10:40:41.012Z,68.22
2023-01-22T10:43:12.505Z,68.18
2023-01-22T10:45:57.030Z,68.78
2023-01-22T10:48:24.195Z,66.53
2023-01-22T10:51:15.122Z,65.68
2023-01-22T10:53:52.183Z,67.12
2023-01-22T10:56:38.636Z,67.40
2023-01-22T10:59:20.475Z,68.58
2023-01-22T11:01:53.522Z,69.64
2023-01-22T11:04:30.544Z,71.16
2023-01-22T11:07:05.966Z,70.54
2023-01-22T11:10:10.187Z,72.02
2023-01-22T11:12:45.675Z,72.13
2023-01-22T11:15:32.734Z,70.29
2023-01-22T11:18:03.333Z,69.07
2023-01-22T11:20:44.264Z,68.93
2023-01-22T11:23:11.120Z,68.92
2023-01-22T11:26:07.216Z,69.80
2023-01-22T11:28:59.178Z,69.88
2023-01-22T11:31:50.032Z,72.08
2023-01-22T11:34:38.334Z,71.36
2023-01-22T11:37:11.079Z,73.48
2023-01-22T11:40:13.488Z,73.23
2023-01-22T11:42:53.367Z,72.09
2023-01-22T11:45:54.738Z,73.74
2023-01-22T11:48:49.438Z,74.50
2023-01-22T11:51:22.089Z,76.64
2023-01-22T11:53:51.759Z,77.42
2023-01-22T11:56:21.667Z,77.83
2023-01-22T11:59:24.524Z,78.03
2023-01-22T12:02:16.998Z,75.35
2023-01-22T12:05:17.303Z,77.71
2023-01-22T12:07:53.125Z,78.15
2023-01-22T12:10:54.127Z,78.46
2023-01-22T12:13:24.368Z,79.16
2023-01-22T12:16:14.735Z,78.58
2023-01-22T12:19:07.295Z,79.03
2023-01-22T12:21:49.085Z,78.49
2023-01-22T12:24:24.347Z,76.95
2023-01-22T12:27:32.220Z,78.65
2023-01-22T12:30:23.697Z,79.30
2023-01-22T12:32:57.393Z,77.28
2023-01-22T12:35:27.120Z,77.57
2023-01-22T12:37:53.906Z,78.41
2023-01-22T12:40:41.981Z,78.59
2023-01-22T12:43:09.220Z,77.47
2023-01-22T12:45:49.638Z,77.74
2023-01-22T12:48:40.886Z,76.17
2023-01-22T12:51:35.918Z,77.14
2023-01-22T12:54:32.430Z,78.79
2023-01-22T12:57:14.699Z,79.58
2023-01-22T12:59:56.416Z,78.60
2023-01-22T13:02:38.977Z,79.90
2023-01-22T13:05:33.307Z,80.21
2023-01-22T13:08:19.833Z,80.10
2023-01-22T13:11:02.415Z,80.46
2023-01-22T13:13:34.232Z,80.07
2023-01-22T13:16:16.775Z,81.96
2023-01-22T13:18:50.563Z,81.81
2023-01-22T13:21:23.689Z,81.96
2023-01-22T13:23:50.697Z,82.23
2023-01-22T13:26:26.609Z,82.96
2023-01-22T13:29:02.258Z,81.55
2023-01-22T13:31:29.627Z,82.03
2023-01-22T13:33:59.604Z,81.93
2023-01-22T13:36:27.925Z,84.57
2023-01-22T13:38:57.682Z,84.30
2023-01-22T13:41:36.870Z,85.48
2023-01-22T13:44:06.042Z,85.35
2023-01-22T13:46:37.954Z,84.97
2023-01-22T13:49:11.041Z,83.95
2023-01-22T13:51:38.483Z,82.29
2023-01-22T13:54:06.712Z,82.84
2023-01-22T13:56:34.724Z,82.81
2023-01-22T13:59:07.045Z,83.01
2023-01-22T14:01:37.285Z,83.00
2023-01-22T14:04:07.805Z,83.40
2023-01-22T14:06:49.741Z,82.32
2023-01-22T14:09:32.279Z,82.89
2023-01-22T14:12:00.502Z,82.21
2023-01-22T14:14:38.096Z,83.37
2023-01-22T14:17:05.061Z,83.15
2023-01-22T14:19:32.152Z,82.08
2023-01-22T14:21:59.283Z,81.99
2023-01-22T14:24:26.369Z,82.31
2023-01-22T14:26:53.292Z,83.34
2023-01-22T14:29:20.194Z,82.39
2023-01-22T14:31:47.060Z,83.30
2023-01-22T14:34:13.938Z,82.14
2023-01-22T14:36:40.865Z,83.85
2023-01-22T14:39:07.829Z,84.65
2023-01-22T14:41:34.692Z,83.60
2023-01-22T14:44:03.423Z,83.48
2023-01-22T14:46:30.359Z,84.30
2023-01-22T14:48:58.496Z,82.48
2023-01-22T14:51:25.735Z,81.45
2023-01-22T14:53:52.724Z,82.99
2023-01-22T14:56:20.182Z,82.45
2023-01-22T14:58:49.694Z,81.45
2023-01-22T15:01:19.305Z,81.73
2023-01-22T15:03:46.676Z,83.30
2023-01-22T15:06:13.788Z,82.66
2023-01-22T15:08:40.757Z,84.11
2023-01-22T15:11:07.867Z,84.85
2023-01-22T15:13:35.553Z,84.19
2023-01-22T15:16:08.226Z,87.67
2023-01-22T15:18:36.403Z,86.38
2023-01-22T15:21:04.326Z,85.11
2023-01-22T15:23:34.789Z,82.58
2023-01-22T15:26:10.519Z,82.67
2023-01-22T15:28:37.365Z,85.96
2023-01-22T15:31:08.125Z,85.43
2023-01-22T15:33:38.278Z,85.81
2023-01-22T15:36:06.021Z,85.33
2023-01-22T15:38:32.994Z,85.20
2023-01-22T15:41:23.335Z,85.67
2023-01-22T15:43:51.177Z,85.68
2023-01-22T15:46:25.724Z,87.15
2023-01-22T15:48:53.014Z,86.84
2023-01-22T15:51:20.592Z,86.46
2023-01-22T15:53:52.316Z,87.12
2023-01-22T15:56:21.048Z,86.83
2023-01-22T15:58:51.801Z,87.20
2023-01-22T16:01:20.311Z,86.33
2023-01-22T16:03:47.298Z,86.66
2023-01-22T16:06:26.200Z,86.88
2023-01-22T16:08:55.058Z,86.29
2023-01-22T16:11:22.637Z,86.17
2023-01-22T16:13:50.071Z,85.68
2023-01-22T16:16:26.231Z,85.23
2023-01-22T16:18:53.852Z,83.73
2023-01-22T16:21:22.144Z,83.45
2023-01-22T16:23:53.501Z,84.70
2023-01-22T16:26:23.350Z,83.81
2023-01-22T16:28:52.264Z,84.96
2023-01-22T16:31:23.375Z,85.80
2023-01-22T16:33:58.841Z,86.31
2023-01-22T16:36:29.251Z,87.63
2023-01-22T16:38:56.628Z,86.78
2023-01-22T16:41:28.006Z,85.46
2023-01-22T16:43:57.866Z,84.96
2023-01-22T16:46:29.521Z,86.27
2023-01-22T16:49:05.970Z,87.01
2023-01-22T16:51:43.129Z,85.92
2023-01-22T16:54:19.309Z,85.38
2023-01-22T16:56:46.822Z,84.98
2023-01-22T16:59:14.092Z,86.10
2023-01-22T17:01:41.591Z,85.10
2023-01-22T17:04:09.040Z,84.56
2023-01-22T17:06:42.542Z,84.49
2023-01-22T17:09:17.943Z,84.45
2023-01-22T17:11:47.117Z,85.27
2023-01-22T17:14:17.288Z,85.60
2023-01-22T17:16:44.385Z,85.88
2023-01-22T17:19:11.293Z,84.99
2023-01-22T17:21:38.317Z,86.49
2023-01-22T17:24:05.522Z,86.76
2023-01-22T17:26:32.520Z,87.69
2023-01-22T17:28:59.568Z,88.85
2023-01-22T17:31:27.223Z,89.16
2023-01-22T17:33:55.724Z,88.55
2023-01-22T17:36:28.508Z,87.86
2023-01-22T17:38:56.886Z,86.42
2023-01-22T17:41:25.521Z,87.92
2023-01-22T17:43:55.361Z,86.93
2023-01-22T17:46:26.865Z,87.18
2023-01-22T17:48:53.951Z,86.18
2023-01-22T17:51:23.605Z,87.23
2023-01-22T17:53:52.163Z,86.36
2023-01-22T17:56:22.143Z,85.81
2023-01-22T17:58:51.161Z,85.07
2023-01-22T18:01:20.670Z,85.59
2023-01-22T18:03:48.205Z,84.41
2023-01-22T18:06:15.288Z,83.45
2023-01-22T18:08:42.804Z,83.52
2023-01-22T18:11:12.897Z,86.21
2023-01-22T18:13:40.613Z,85.41
2023-01-22T18:16:10.246Z,84.47
2023-01-22T18:18:37.484Z,84.61
2023-01-22T18:21:06.971Z,85.03
2023-01-22T18:23:33.964Z,87.01
2023-01-22T18:26:05.237Z,87.90
2023-01-22T18:28:32.790Z,87.46
2023-01-22T18:31:07.608Z,88.35
2023-01-22T18:33:37.407Z,86.86
2023-01-22T18:36:08.567Z,88.63
2023-01-22T18:38:36.826Z,87.55
2023-01-22T18:41:10.548Z,88.16
2023-01-22T18:43:38.615Z,87.44
2023-01-22T18:46:07.753Z,88.19
2023-01-22T18:48:34.754Z,89.30
2023-01-22T18:51:02.402Z,88.91
2023-01-22T18:53:30.942Z,88.56
2023-01-22T18:56:02.651Z,88.72
2023-01-22T18:58:35.589Z,88.87
2023-01-22T19:01:11.776Z,88.74
2023-01-22T19:03:40.194Z,87.63
2023-01-22T19:06:14.091Z,88.95
2023-01-22T19:08:46.118Z,89.73
2023-01-22T19:11:14.378Z,90.21
2023-01-22T19:13:43.011Z,90.31
2023-01-22T19:16:13.675Z,88.86
2023-01-22T19:18:42.716Z,88.54
2023-01-22T19:21:19.301Z,87.23
2023-01-22T19:23:47.951Z,87.69
2023-01-22T19:26:34.377Z,88.07
2023-01-22T19:29:11.264Z,87.89
2023-01-22T19:31:42.042Z,87.49
2023-01-22T19:34:11.391Z,88.36
2023-01-22T19:36:39.358Z,88.79
2023-01-22T19:39:11.624Z,88.45
2023-01-22T19:41:42.610Z,88.45
2023-01-22T19:44:11.125Z,88.92
2023-01-22T19:46:39.257Z,88.66
2023-01-22T19:49:07.729Z,89.27
2023-01-22T19:51:35.306Z,89.40
2023-01-22T19:54:04.785Z,89.77
2023-01-22T19:56:36.656Z,88.98
2023-01-22T19:59:07.254Z,87.90
2023-01-22T20:01:35.216Z,88.74
2023-01-22T20:04:03.835Z,89.94
2023-01-22T20:06:31.230Z,90.36
2023-01-22T20:08:58.159Z,91.05
2023-01-22T20:11:25.623Z,90.72
2023-01-22T20:13:53.490Z,90.27
2023-01-22T20:16:23.430Z,90.37
2023-01-22T20:18:51.452Z,90.00
2023-01-22T20:21:19.861Z,90.18
2023-01-22T20:23:48.051Z,90.14
2023-01-22T20:26:16.699Z,89.84
2023-01-22T20:28:43.762Z,89.22
2023-01-22T20:31:19.967Z,89.53
2023-01-22T20:33:47.481Z,89.93
2023-01-22T20:36:19.467Z,90.18
2023-01-22T20:38:48.422Z,90.35
2023-01-22T20:41:18.766Z,89.97
2023-01-22T20:43:46.014Z,89.61
2023-01-22T20:46:17.295Z,90.59
2023-01-22T20:48:44.805Z,90.88
2023-01-22T20:51:18.027Z,90.26
2023-01-22T20:53:46.655Z,89.25
2023-01-22T20:56:23.595Z,89.98
2023-01-22T20:59:01.177Z,89.43
2023-01-22T21:01:29.228Z,88.35
2023-01-22T21:03:58.827Z,90.53
2023-01-22T21:06:28.115Z,90.86
2023-01-22T21:08:56.431Z,90.41
2023-01-22T21:11:24.655Z,89.69
2023-01-22T21:13:53.111Z,89.61
2023-01-22T21:16:26.196Z,89.97
2023-01-22T21:19:05.152Z,89.82
2023-01-22T21:21:33.652Z,91.19
2023-01-22T21:24:01.329Z,91.08
2023-01-22T21:26:30.573Z,90.91
2023-01-22T21:29:03.870Z,90.23
2023-01-22T21:31:31.902Z,90.64
2023-01-22T21:34:03.638Z,90.32
2023-01-22T21:36:32.271Z,89.97
2023-01-22T21:38:59.539Z,91.03
2023-01-22T21:41:27.024Z,90.91
2023-01-22T21:44:12.579Z,90.33
2023-01-22T21:46:43.532Z,89.77
2023-01-22T21:49:16.483Z,89.54
2023-01-22T21:51:49.500Z,88.22
2023-01-22T21:54:28.352Z,88.40
2023-01-22T21:56:56.913Z,88.09
2023-01-22T21:59:24.287Z,88.12
2023-01-22T22:01:53.738Z,88.49
2023-01-22T22:04:22.809Z,88.94
2023-01-22T22:06:49.734Z,88.96
2023-01-22T22:09:18.902Z,88.17
2023-01-22T22:11:46.009Z,88.37
2023-01-22T22:14:15.935Z,86.99
2023-01-22T22:16:44.409Z,88.44
2023-01-22T22:19:11.463Z,89.62
2023-01-22T22:21:38.417Z,89.46
2023-01-22T22:24:06.244Z,88.40
2023-01-22T22:26:33.649Z,86.56
2023-01-22T22:29:00.556Z,88.25
2023-01-22T22:31:27.688Z,87.10
2023-01-22T22:33:56.249Z,87.30
2023-01-22T22:36:25.696Z,87.90
2023-01-22T22:38:53.350Z,88.16
2023-01-22T22:41:23.506Z,87.76
2023-01-22T22:43:52.263Z,88.66
2023-01-22T22:46:26.194Z,88.11
2023-01-22T22:48:54.618Z,86.58
2023-01-22T22:51:28.293Z,86.36
2023-01-22T22:53:57.556Z,87.27
2023-01-22T22:56:25.453Z,86.04
2023-01-22T22:58:52.472Z,86.35
2023-01-22T23:01:22.800Z,85.45
2023-01-22T23:03:50.157Z,85.75
2023-01-22T23:06:19.971Z,86.22
2023-01-22T23:08:52.866Z,85.95
2023-01-22T23:11:25.591Z,85.96
2023-01-22T23:13:52.922Z,86.78
2023-01-22T23:16:22.002Z,87.18
2023-01-22T23:18:51.352Z,87.71
2023-01-22T23:21:22.014Z,88.18
2023-01-22T23:23:49.394Z,87.48
2023-01-22T23:26:19.903Z,87.24
2023-01-22T23:28:47.738Z,86.94
2023-01-22T23:31:16.808Z,86.39
2023-01-22T23:33:44.295Z,86.04
2023-01-22T23:36:13.882Z,87.94
2023-01-22T23:38:42.636Z,86.24
2023-01-22T23:41:12.100Z,87.30
2023-01-22T23:43:39.297Z,86.77
2023-01-22T23:46:11.177Z,86.90
2023-01-22T23:48:38.086Z,85.28
2023-01-22T23:51:07.625Z,84.57
2023-01-22T23:53:43.031Z,85.05
2023-01-22T23:56:12.209Z,84.17
2023-01-22T23:58:39.503Z,84.30
